sensor_id;sensor_type;location;lat;lon;timestamp;pressure;altitude;pressure_sealevel;temperature
77331;BMP280;66405;48.328;7.820;2023-04-24T00:00:29;98922.25;;;13.35
77331;BMP280;66405;48.328;7.820;2023-04-24T00:03:30;98930.63;;;13.37
77331;BMP280;66405;48.328;7.820;2023-04-24T00:06:30;98923.25;;;13.37
77331;BMP280;66405;48.328;7.820;2023-04-24T00:09:33;98923.50;;;13.39
77331;BMP280;66405;48.328;7.820;2023-04-24T00:12:34;98922.75;;;13.39
77331;BMP280;66405;48.328;7.820;2023-04-24T00:15:35;98931.16;;;13.41
77331;BMP280;66405;48.328;7.820;2023-04-24T00:18:35;98941.75;;;13.45
77331;BMP280;66405;48.328;7.820;2023-04-24T00:21:36;98928.19;;;13.45
77331;BMP280;66405;48.328;7.820;2023-04-24T00:24:36;98932.66;;;13.42
77331;BMP280;66405;48.328;7.820;2023-04-24T00:27:37;98930.19;;;13.44
77331;BMP280;66405;48.328;7.820;2023-04-24T00:30:39;98936.09;;;13.43
77331;BMP280;66405;48.328;7.820;2023-04-24T00:33:40;98931.16;;;13.41
77331;BMP280;66405;48.328;7.820;2023-04-24T00:36:41;98931.66;;;13.39
77331;BMP280;66405;48.328;7.820;2023-04-24T00:39:41;98935.09;;;13.40
77331;BMP280;66405;48.328;7.820;2023-04-24T00:42:43;98926.22;;;13.39
77331;BMP280;66405;48.328;7.820;2023-04-24T00:45:43;98929.66;;;13.40
77331;BMP280;66405;48.328;7.820;2023-04-24T00:48:44;98924.72;;;13.38
77331;BMP280;66405;48.328;7.820;2023-04-24T00:51:44;98933.38;;;13.43
77331;BMP280;66405;48.328;7.820;2023-04-24T00:54:46;98927.94;;;13.43
77331;BMP280;66405;48.328;7.820;2023-04-24T00:57:47;98934.34;;;13.39
77331;BMP280;66405;48.328;7.820;2023-04-24T01:00:49;98929.94;;;13.42
77331;BMP280;66405;48.328;7.820;2023-04-24T01:03:53;98939.03;;;13.45
77331;BMP280;66405;48.328;7.820;2023-04-24T01:06:54;98931.41;;;13.43
77331;BMP280;66405;48.328;7.820;2023-04-24T01:09:56;98928.19;;;13.45
77331;BMP280;66405;48.328;7.820;2023-04-24T01:12:56;98940.03;;;13.47
77331;BMP280;66405;48.328;7.820;2023-04-24T01:15:57;98926.97;;;13.46
77331;BMP280;66405;48.328;7.820;2023-04-24T01:18:57;98925.97;;;13.43
77331;BMP280;66405;48.328;7.820;2023-04-24T01:21:58;98926.22;;;13.45
77331;BMP280;66405;48.328;7.820;2023-04-24T01:25:03;98920.53;;;13.43
77331;BMP280;66405;48.328;7.820;2023-04-24T01:28:04;98927.94;;;13.43
77331;BMP280;66405;48.328;7.820;2023-04-24T01:31:05;98924.25;;;13.40
77331;BMP280;66405;48.328;7.820;2023-04-24T01:34:06;98922.75;;;13.39
77331;BMP280;66405;48.328;7.820;2023-04-24T01:37:08;98925.72;;;13.35
77331;BMP280;66405;48.328;7.820;2023-04-24T01:40:09;98912.16;;;13.35
77331;BMP280;66405;48.328;7.820;2023-04-24T01:43:09;98906.94;;;13.32
77331;BMP280;66405;48.328;7.820;2023-04-24T01:46:10;98910.38;;;13.32
77331;BMP280;66405;48.328;7.820;2023-04-24T01:49:10;98908.41;;;13.27
77331;BMP280;66405;48.328;7.820;2023-04-24T01:52:12;98914.09;;;13.29
77331;BMP280;66405;48.328;7.820;2023-04-24T01:55:12;98911.84;;;13.28
77331;BMP280;66405;48.328;7.820;2023-04-24T01:58:13;98915.78;;;13.27
77331;BMP280;66405;48.328;7.820;2023-04-24T02:01:20;98919.47;;;13.23
77331;BMP280;66405;48.328;7.820;2023-04-24T02:04:21;98924.16;;;13.23
77331;BMP280;66405;48.328;7.820;2023-04-24T02:07:22;98917.00;;;13.20
77331;BMP280;66405;48.328;7.820;2023-04-24T02:10:23;98924.09;;;13.12
77331;BMP280;66405;48.328;7.820;2023-04-24T02:13:25;98924.81;;;13.06
77331;BMP280;66405;48.328;7.820;2023-04-24T02:16:25;98915.44;;;13.02
77331;BMP280;66405;48.328;7.820;2023-04-24T02:19:26;98921.81;;;12.99
77331;BMP280;66405;48.328;7.820;2023-04-24T02:22:26;98917.59;;;12.92
77331;BMP280;66405;48.328;7.820;2023-04-24T02:25:27;98919.06;;;12.93
77331;BMP280;66405;48.328;7.820;2023-04-24T02:28:29;98925.47;;;12.90
77331;BMP280;66405;48.328;7.820;2023-04-24T02:31:29;98930.41;;;12.92
77331;BMP280;66405;48.328;7.820;2023-04-24T02:34:30;98933.13;;;12.92
77331;BMP280;66405;48.328;7.820;2023-04-24T02:37:30;98931.13;;;12.92
77331;BMP280;66405;48.328;7.820;2023-04-24T02:40:31;98941.97;;;12.92
77331;BMP280;66405;48.328;7.820;2023-04-24T02:43:32;98945.19;;;12.91
77331;BMP280;66405;48.328;7.820;2023-04-24T02:46:33;98938.25;;;12.89
77331;BMP280;66405;48.328;7.820;2023-04-24T02:49:34;98952.34;;;12.88
77331;BMP280;66405;48.328;7.820;2023-04-24T02:52:35;98975.47;;;12.83
77331;BMP280;66405;48.328;7.820;2023-04-24T02:55:35;98982.81;;;12.77
77331;BMP280;66405;48.328;7.820;2023-04-24T02:58:36;98992.41;;;12.78
77331;BMP280;66405;48.328;7.820;2023-04-24T03:01:36;98995.38;;;12.75
77331;BMP280;66405;48.328;7.820;2023-04-24T03:04:37;98998.75;;;12.69
77331;BMP280;66405;48.328;7.820;2023-04-24T03:07:38;98986.66;;;12.65
77331;BMP280;66405;48.328;7.820;2023-04-24T03:10:38;98985.41;;;12.60
77331;BMP280;66405;48.328;7.820;2023-04-24T03:13:39;98975.03;;;12.59
77331;BMP280;66405;48.328;7.820;2023-04-24T03:16:39;98975.03;;;12.59
77331;BMP280;66405;48.328;7.820;2023-04-24T03:19:40;98976.72;;;12.56
77331;BMP280;66405;48.328;7.820;2023-04-24T03:22:44;98979.16;;;12.54
77331;BMP280;66405;48.328;7.820;2023-04-24T03:25:45;98978.16;;;12.51
77331;BMP280;66405;48.328;7.820;2023-04-24T03:28:47;98987.06;;;12.52
77331;BMP280;66405;48.328;7.820;2023-04-24T03:31:47;98980.16;;;12.51
77331;BMP280;66405;48.328;7.820;2023-04-24T03:34:50;98975.94;;;12.50
77331;BMP280;66405;48.328;7.820;2023-04-24T03:37:51;98984.81;;;12.50
77331;BMP280;66405;48.328;7.820;2023-04-24T03:41:14;98983.13;;;12.53
77331;BMP280;66405;48.328;7.820;2023-04-24T03:44:20;99003.31;;;12.52
77331;BMP280;66405;48.328;7.820;2023-04-24T03:47:21;99005.28;;;12.51
77331;BMP280;66405;48.328;7.820;2023-04-24T03:50:22;99000.31;;;12.50
77331;BMP280;66405;48.328;7.820;2023-04-24T03:53:23;99001.06;;;12.50
77331;BMP280;66405;48.328;7.820;2023-04-24T03:56:24;99014.16;;;12.52
77331;BMP280;66405;48.328;7.820;2023-04-24T03:59:24;99018.28;;;12.47
77331;BMP280;66405;48.328;7.820;2023-04-24T04:02:39;99013.56;;;12.42
77331;BMP280;66405;48.328;7.820;2023-04-24T04:05:40;99014.72;;;12.35
77331;BMP280;66405;48.328;7.820;2023-04-24T04:08:41;99027.19;;;12.27
77331;BMP280;66405;48.328;7.820;2023-04-24T04:11:42;99037.25;;;12.21
77331;BMP280;66405;48.328;7.820;2023-04-24T04:14:42;99044.28;;;12.13
77331;BMP280;66405;48.328;7.820;2023-04-24T04:17:43;99053.56;;;12.06
77331;BMP280;66405;48.328;7.820;2023-04-24T04:20:44;99061.34;;;11.98
77331;BMP280;66405;48.328;7.820;2023-04-24T04:23:47;99058.84;;;11.95
77331;BMP280;66405;48.328;7.820;2023-04-24T04:26:54;99072.09;;;11.93
77331;BMP280;66405;48.328;7.820;2023-04-24T04:30:09;99075.97;;;11.86
77331;BMP280;66405;48.328;7.820;2023-04-24T04:33:21;99065.94;;;11.72
77331;BMP280;66405;48.328;7.820;2023-04-24T04:36:22;99076.03;;;11.71
77331;BMP280;66405;48.328;7.820;2023-04-24T04:39:29;99069.03;;;11.64
77331;BMP280;66405;48.328;7.820;2023-04-24T04:42:40;99073.88;;;11.60
77331;BMP280;66405;48.328;7.820;2023-04-24T04:45:41;99067.75;;;11.60
77331;BMP280;66405;48.328;7.820;2023-04-24T04:49:02;99079.38;;;11.66
77331;BMP280;66405;48.328;7.820;2023-04-24T04:52:03;99084.31;;;11.67
77331;BMP280;66405;48.328;7.820;2023-04-24T04:55:04;99096.69;;;11.74
77331;BMP280;66405;48.328;7.820;2023-04-24T04:58:25;99090.38;;;11.77
77331;BMP280;66405;48.328;7.820;2023-04-24T05:01:29;99113.88;;;11.86
77331;BMP280;66405;48.328;7.820;2023-04-24T05:04:30;99107.22;;;11.87
77331;BMP280;66405;48.328;7.820;2023-04-24T05:07:31;99107.22;;;11.87
77331;BMP280;66405;48.328;7.820;2023-04-24T05:10:32;99108.47;;;11.86
77331;BMP280;66405;48.328;7.820;2023-04-24T05:13:33;99109.75;;;11.91
77331;BMP280;66405;48.328;7.820;2023-04-24T05:16:35;99106.84;;;11.94
77331;BMP280;66405;48.328;7.820;2023-04-24T05:19:38;99122.88;;;11.98
77331;BMP280;66405;48.328;7.820;2023-04-24T05:22:39;99119.22;;;12.01
77331;BMP280;66405;48.328;7.820;2023-04-24T05:25:41;99126.91;;;12.02
77331;BMP280;66405;48.328;7.820;2023-04-24T05:28:45;99132.81;;;12.07
77331;BMP280;66405;48.328;7.820;2023-04-24T05:31:46;99135.34;;;12.10
77331;BMP280;66405;48.328;7.820;2023-04-24T05:34:47;99137.56;;;12.12
77331;BMP280;66405;48.328;7.820;2023-04-24T05:37:47;99149.63;;;12.11
77331;BMP280;66405;48.328;7.820;2023-04-24T05:40:48;99164.13;;;12.08
77331;BMP280;66405;48.328;7.820;2023-04-24T05:43:50;99185.50;;;12.06
77331;BMP280;66405;48.328;7.820;2023-04-24T05:46:51;99190.16;;;12.05
77331;BMP280;66405;48.328;7.820;2023-04-24T05:49:53;99175.75;;;11.93
77331;BMP280;66405;48.328;7.820;2023-04-24T05:52:54;99179.66;;;11.92
77331;BMP280;66405;48.328;7.820;2023-04-24T05:56:00;99170.03;;;11.91
77331;BMP280;66405;48.328;7.820;2023-04-24T05:59:01;99185.38;;;11.94
77331;BMP280;66405;48.328;7.820;2023-04-24T06:02:01;99195.44;;;11.94
77331;BMP280;66405;48.328;7.820;2023-04-24T06:05:06;99189.56;;;11.95
77331;BMP280;66405;48.328;7.820;2023-04-24T06:08:06;99201.69;;;12.00
77331;BMP280;66405;48.328;7.820;2023-04-24T06:11:10;99208.00;;;12.12
77331;BMP280;66405;48.328;7.820;2023-04-24T06:14:12;99200.03;;;12.23
77331;BMP280;66405;48.328;7.820;2023-04-24T06:17:13;99213.53;;;12.38
77331;BMP280;66405;48.328;7.820;2023-04-24T06:20:16;99224.03;;;12.51
77331;BMP280;66405;48.328;7.820;2023-04-24T06:23:16;99214.94;;;12.54
77331;BMP280;66405;48.328;7.820;2023-04-24T06:26:16;99215.78;;;12.60
77331;BMP280;66405;48.328;7.820;2023-04-24T06:29:17;99221.72;;;12.64
77331;BMP280;66405;48.328;7.820;2023-04-24T06:32:22;99224.13;;;12.83
77331;BMP280;66405;48.328;7.820;2023-04-24T06:35:22;99227.09;;;13.05
77331;BMP280;66405;48.328;7.820;2023-04-24T06:38:25;99236.69;;;13.27
77331;BMP280;66405;48.328;7.820;2023-04-24T06:41:26;99237.72;;;13.30
77331;BMP280;66405;48.328;7.820;2023-04-24T06:44:27;99235.63;;;13.19
77331;BMP280;66405;48.328;7.820;2023-04-24T06:47:27;99239.78;;;13.14
77331;BMP280;66405;48.328;7.820;2023-04-24T06:50:28;99247.06;;;13.29
77331;BMP280;66405;48.328;7.820;2023-04-24T06:53:31;99257.78;;;13.44
77331;BMP280;66405;48.328;7.820;2023-04-24T06:56:32;99250.25;;;13.53
77331;BMP280;66405;48.328;7.820;2023-04-24T06:59:34;99249.13;;;13.71
77331;BMP280;66405;48.328;7.820;2023-04-24T07:02:34;99254.44;;;13.86
77331;BMP280;66405;48.328;7.820;2023-04-24T07:05:36;99255.00;;;13.96
77331;BMP280;66405;48.328;7.820;2023-04-24T07:08:39;99264.28;;;14.21
77331;BMP280;66405;48.328;7.820;2023-04-24T07:11:39;99263.81;;;14.23
77331;BMP280;66405;48.328;7.820;2023-04-24T07:14:41;99268.50;;;14.22
77331;BMP280;66405;48.328;7.820;2023-04-24T07:17:43;99270.53;;;14.33
77331;BMP280;66405;48.328;7.820;2023-04-24T07:20:44;99266.84;;;14.31
77331;BMP280;66405;48.328;7.820;2023-04-24T07:23:45;99276.44;;;14.26
77331;BMP280;66405;48.328;7.820;2023-04-24T07:26:46;99278.59;;;14.16
77331;BMP280;66405;48.328;7.820;2023-04-24T07:29:48;99284.47;;;14.09
77331;BMP280;66405;48.328;7.820;2023-04-24T07:32:48;99287.84;;;13.98
77331;BMP280;66405;48.328;7.820;2023-04-24T07:35:51;99283.81;;;13.82
77331;BMP280;66405;48.328;7.820;2023-04-24T07:38:54;99289.41;;;13.73
77331;BMP280;66405;48.328;7.820;2023-04-24T07:41:54;99299.94;;;13.65
77331;BMP280;66405;48.328;7.820;2023-04-24T07:44:56;99293.22;;;13.55
77331;BMP280;66405;48.328;7.820;2023-04-24T07:47:56;99311.44;;;13.54
77331;BMP280;66405;48.328;7.820;2023-04-24T07:51:00;99317.34;;;13.53
77331;BMP280;66405;48.328;7.820;2023-04-24T07:54:01;99324.06;;;13.57
77331;BMP280;66405;48.328;7.820;2023-04-24T07:57:02;99325.84;;;13.61
77331;BMP280;66405;48.328;7.820;2023-04-24T08:00:04;99326.50;;;13.55
77331;BMP280;66405;48.328;7.820;2023-04-24T08:03:11;99331.75;;;13.65
77331;BMP280;66405;48.328;7.820;2023-04-24T08:06:12;99332.94;;;13.84
77331;BMP280;66405;48.328;7.820;2023-04-24T08:09:13;99340.91;;;13.94
77331;BMP280;66405;48.328;7.820;2023-04-24T08:12:15;99350.59;;;14.00
77331;BMP280;66405;48.328;7.820;2023-04-24T08:15:16;99350.59;;;14.00
77331;BMP280;66405;48.328;7.820;2023-04-24T08:18:17;99353.84;;;14.04
77331;BMP280;66405;48.328;7.820;2023-04-24T08:21:20;99351.06;;;14.25
77331;BMP280;66405;48.328;7.820;2023-04-24T08:24:22;99359.06;;;14.46
77331;BMP280;66405;48.328;7.820;2023-04-24T08:27:26;99351.47;;;14.55
77331;BMP280;66405;48.328;7.820;2023-04-24T08:30:26;99352.00;;;14.65
77331;BMP280;66405;48.328;7.820;2023-04-24T08:33:28;99366.75;;;14.96
77331;BMP280;66405;48.328;7.820;2023-04-24T08:36:34;99371.72;;;15.09
77331;BMP280;66405;48.328;7.820;2023-04-24T08:39:35;99345.06;;;15.24
77331;BMP280;66405;48.328;7.820;2023-04-24T08:42:36;99359.47;;;15.59
77331;BMP280;66405;48.328;7.820;2023-04-24T08:45:37;99363.69;;;15.71
77331;BMP280;66405;48.328;7.820;2023-04-24T08:48:39;99358.00;;;15.80
77331;BMP280;66405;48.328;7.820;2023-04-24T08:51:39;99372.63;;;15.89
77331;BMP280;66405;48.328;7.820;2023-04-24T08:54:41;99369.91;;;15.77
77331;BMP280;66405;48.328;7.820;2023-04-24T08:57:50;99377.06;;;15.52
77331;BMP280;66405;48.328;7.820;2023-04-24T09:00:51;99387.41;;;15.31
77331;BMP280;66405;48.328;7.820;2023-04-24T09:03:53;99391.75;;;15.00
77331;BMP280;66405;48.328;7.820;2023-04-24T09:06:58;99397.63;;;14.82
77331;BMP280;66405;48.328;7.820;2023-04-24T09:10:01;99394.53;;;14.63
77331;BMP280;66405;48.328;7.820;2023-04-24T09:13:02;99404.06;;;14.52
77331;BMP280;66405;48.328;7.820;2023-04-24T09:16:03;99405.25;;;14.46
77331;BMP280;66405;48.328;7.820;2023-04-24T09:19:03;99404.31;;;14.49
77331;BMP280;66405;48.328;7.820;2023-04-24T09:22:07;99401.13;;;14.50
77331;BMP280;66405;48.328;7.820;2023-04-24T09:25:09;99417.19;;;14.48
77331;BMP280;66405;48.328;7.820;2023-04-24T09:28:15;99408.75;;;14.46
77331;BMP280;66405;48.328;7.820;2023-04-24T09:31:18;99417.41;;;14.45
77331;BMP280;66405;48.328;7.820;2023-04-24T09:34:23;99419.03;;;14.36
77331;BMP280;66405;48.328;7.820;2023-04-24T09:37:28;99415.59;;;14.36
77331;BMP280;66405;48.328;7.820;2023-04-24T09:40:29;99414.88;;;14.41
77331;BMP280;66405;48.328;7.820;2023-04-24T09:43:30;99412.63;;;14.39
77331;BMP280;66405;48.328;7.820;2023-04-24T09:46:31;99413.97;;;14.50
77331;BMP280;66405;48.328;7.820;2023-04-24T09:49:33;99418.22;;;14.56
77331;BMP280;66405;48.328;7.820;2023-04-24T09:52:40;99420.25;;;14.67
77331;BMP280;66405;48.328;7.820;2023-04-24T09:55:47;99432.88;;;14.70
77331;BMP280;66405;48.328;7.820;2023-04-24T09:58:49;99426.94;;;14.72
77331;BMP280;66405;48.328;7.820;2023-04-24T10:01:49;99431.72;;;14.83
77331;BMP280;66405;48.328;7.820;2023-04-24T10:04:55;99439.06;;;14.71
77331;BMP280;66405;48.328;7.820;2023-04-24T10:08:10;99447.41;;;14.61
77331;BMP280;66405;48.328;7.820;2023-04-24T10:11:13;99460.19;;;14.50
77331;BMP280;66405;48.328;7.820;2023-04-24T10:14:16;99454.09;;;14.29
77331;BMP280;66405;48.328;7.820;2023-04-24T10:17:19;99457.72;;;14.20
77331;BMP280;66405;48.328;7.820;2023-04-24T10:20:25;99460.53;;;14.05
77331;BMP280;66405;48.328;7.820;2023-04-24T10:23:29;99456.50;;;13.95
77331;BMP280;66405;48.328;7.820;2023-04-24T10:26:31;99466.81;;;13.90
77331;BMP280;66405;48.328;7.820;2023-04-24T10:29:35;99474.09;;;13.79
77331;BMP280;66405;48.328;7.820;2023-04-24T10:32:37;99461.63;;;13.66
77331;BMP280;66405;48.328;7.820;2023-04-24T10:35:44;99475.00;;;13.70
77331;BMP280;66405;48.328;7.820;2023-04-24T10:38:46;99474.50;;;13.71
77331;BMP280;66405;48.328;7.820;2023-04-24T10:41:48;99471.06;;;13.71
77331;BMP280;66405;48.328;7.820;2023-04-24T10:44:49;99475.53;;;13.74
77331;BMP280;66405;48.328;7.820;2023-04-24T10:47:57;99474.06;;;13.73
77331;BMP280;66405;48.328;7.820;2023-04-24T10:50:58;99481.03;;;13.80
77331;BMP280;66405;48.328;7.820;2023-04-24T10:53:58;99470.44;;;13.82
77331;BMP280;66405;48.328;7.820;2023-04-24T11:00:21;99486.53;;;14.12
77331;BMP280;66405;48.328;7.820;2023-04-24T11:03:28;99483.94;;;14.23
77331;BMP280;66405;48.328;7.820;2023-04-24T11:06:29;99494.41;;;14.36
77331;BMP280;66405;48.328;7.820;2023-04-24T11:09:32;99492.78;;;14.44
77331;BMP280;66405;48.328;7.820;2023-04-24T11:12:34;99494.84;;;14.29
77331;BMP280;66405;48.328;7.820;2023-04-24T11:15:35;99494.09;;;14.28
77331;BMP280;66405;48.328;7.820;2023-04-24T11:18:39;99496.59;;;14.32
77331;BMP280;66405;48.328;7.820;2023-04-24T11:24:59;99501.13;;;14.40
77331;BMP280;66405;48.328;7.820;2023-04-24T11:28:05;99495.44;;;14.38
77331;BMP280;66405;48.328;7.820;2023-04-24T11:31:37;99509.03;;;14.38
77331;BMP280;66405;48.328;7.820;2023-04-24T11:34:38;99495.91;;;14.37
77331;BMP280;66405;48.328;7.820;2023-04-24T11:37:42;99506.41;;;14.50
77331;BMP280;66405;48.328;7.820;2023-04-24T11:40:43;99501.03;;;14.55
77331;BMP280;66405;48.328;7.820;2023-04-24T11:43:45;99506.53;;;14.67
77331;BMP280;66405;48.328;7.820;2023-04-24T11:46:46;99500.69;;;14.80
77331;BMP280;66405;48.328;7.820;2023-04-24T11:49:50;99493.63;;;14.93
77331;BMP280;66405;48.328;7.820;2023-04-24T11:52:50;99488.00;;;15.08
77331;BMP280;66405;48.328;7.820;2023-04-24T11:55:53;99483.88;;;15.24
77331;BMP280;66405;48.328;7.820;2023-04-24T11:58:55;99483.50;;;15.48
77331;BMP280;66405;48.328;7.820;2023-04-24T12:01:57;99491.69;;;15.65
77331;BMP280;66405;48.328;7.820;2023-04-24T12:04:58;99486.06;;;15.69
77331;BMP280;66405;48.328;7.820;2023-04-24T12:07:58;99483.09;;;15.73
77331;BMP280;66405;48.328;7.820;2023-04-24T12:11:02;99481.34;;;15.81
77331;BMP280;66405;48.328;7.820;2023-04-24T12:14:11;99470.94;;;15.79
77331;BMP280;66405;48.328;7.820;2023-04-24T12:17:13;99480.38;;;15.78
77331;BMP280;66405;48.328;7.820;2023-04-24T12:20:14;99483.09;;;15.84
77331;BMP280;66405;48.328;7.820;2023-04-24T12:23:15;99471.44;;;15.78
77331;BMP280;66405;48.328;7.820;2023-04-24T12:26:18;99477.16;;;15.80
77331;BMP280;66405;48.328;7.820;2023-04-24T12:29:22;99470.72;;;15.83
77331;BMP280;66405;48.328;7.820;2023-04-24T12:32:23;99483.34;;;15.86
77331;BMP280;66405;48.328;7.820;2023-04-24T12:35:27;99475.66;;;15.79
77331;BMP280;66405;48.328;7.820;2023-04-24T12:38:28;99480.34;;;15.73
77331;BMP280;66405;48.328;7.820;2023-04-24T12:41:30;99478.09;;;15.71
77331;BMP280;66405;48.328;7.820;2023-04-24T12:44:34;99466.72;;;15.73
77331;BMP280;66405;48.328;7.820;2023-04-24T12:47:36;99462.78;;;15.68
77331;BMP280;66405;48.328;7.820;2023-04-24T12:50:38;99461.28;;;15.67
77331;BMP280;66405;48.328;7.820;2023-04-24T12:53:38;99464.94;;;15.58
77331;BMP280;66405;48.328;7.820;2023-04-24T12:56:39;99464.94;;;15.64
77331;BMP280;66405;48.328;7.820;2023-04-24T12:59:41;99463.47;;;15.63
77331;BMP280;66405;48.328;7.820;2023-04-24T13:02:42;99463.72;;;15.65
77331;BMP280;66405;48.328;7.820;2023-04-24T13:05:42;99465.97;;;15.67
77331;BMP280;66405;48.328;7.820;2023-04-24T13:08:44;99461.28;;;15.67
77331;BMP280;66405;48.328;7.820;2023-04-24T13:11:45;99463.53;;;15.80
77331;BMP280;66405;48.328;7.820;2023-04-24T13:14:46;99458.13;;;15.97
77331;BMP280;66405;48.328;7.820;2023-04-24T13:17:46;99456.84;;;16.15
77331;BMP280;66405;48.328;7.820;2023-04-24T13:20:47;99446.72;;;16.27
77331;BMP280;66405;48.328;7.820;2023-04-24T13:23:49;99457.59;;;16.32
77331;BMP280;66405;48.328;7.820;2023-04-24T13:26:50;99457.59;;;16.44
77331;BMP280;66405;48.328;7.820;2023-04-24T13:29:52;99452.41;;;16.46
77331;BMP280;66405;48.328;7.820;2023-04-24T13:32:54;99449.41;;;16.38
77331;BMP280;66405;48.328;7.820;2023-04-24T13:35:54;99455.13;;;16.34
77331;BMP280;66405;48.328;7.820;2023-04-24T13:38:55;99438.78;;;16.34
77331;BMP280;66405;48.328;7.820;2023-04-24T13:41:55;99445.44;;;16.33
77331;BMP280;66405;48.328;7.820;2023-04-24T13:44:56;99439.25;;;16.44
77331;BMP280;66405;48.328;7.820;2023-04-24T13:47:56;99427.13;;;16.51
77331;BMP280;66405;48.328;7.820;2023-04-24T13:50:59;99426.34;;;16.62
77331;BMP280;66405;48.328;7.820;2023-04-24T13:53:59;99421.06;;;16.81
77331;BMP280;66405;48.328;7.820;2023-04-24T13:57:00;99426.75;;;16.94
77331;BMP280;66405;48.328;7.820;2023-04-24T14:00:03;99417.97;;;17.07
77331;BMP280;66405;48.328;7.820;2023-04-24T14:03:07;99424.34;;;17.27
77331;BMP280;66405;48.328;7.820;2023-04-24T14:06:09;99415.75;;;17.53
77331;BMP280;66405;48.328;7.820;2023-04-24T14:09:12;99416.50;;;17.89
77331;BMP280;66405;48.328;7.820;2023-04-24T14:12:13;99414.25;;;18.18
77331;BMP280;66405;48.328;7.820;2023-04-24T14:15:14;99402.13;;;18.38
77331;BMP280;66405;48.328;7.820;2023-04-24T14:18:17;99396.13;;;18.40
77331;BMP280;66405;48.328;7.820;2023-04-24T14:21:19;99400.13;;;18.39
77331;BMP280;66405;48.328;7.820;2023-04-24T14:24:21;99395.34;;;18.45
77331;BMP280;66405;48.328;7.820;2023-04-24T14:27:24;99390.34;;;18.68
77331;BMP280;66405;48.328;7.820;2023-04-24T14:30:27;99392.28;;;19.11
77331;BMP280;66405;48.328;7.820;2023-04-24T14:33:29;99391.25;;;20.06
77331;BMP280;66405;48.328;7.820;2023-04-24T14:36:32;99388.75;;;20.96
77331;BMP280;66405;48.328;7.820;2023-04-24T14:39:34;99389.56;;;21.25
77331;BMP280;66405;48.328;7.820;2023-04-24T14:42:34;99386.47;;;21.08
77331;BMP280;66405;48.328;7.820;2023-04-24T14:45:36;99383.34;;;20.90
77331;BMP280;66405;48.328;7.820;2023-04-24T14:48:37;99377.69;;;20.75
77331;BMP280;66405;48.328;7.820;2023-04-24T14:51:37;99381.19;;;20.75
77331;BMP280;66405;48.328;7.820;2023-04-24T14:54:38;99376.75;;;20.72
77331;BMP280;66405;48.328;7.820;2023-04-24T14:57:38;99372.53;;;20.71
77331;BMP280;66405;48.328;7.820;2023-04-24T15:00:39;99383.72;;;20.73
77331;BMP280;66405;48.328;7.820;2023-04-24T15:03:40;99388.19;;;20.63
77331;BMP280;66405;48.328;7.820;2023-04-24T15:06:42;99390.22;;;20.49
77331;BMP280;66405;48.328;7.820;2023-04-24T15:09:42;99385.03;;;20.32
77331;BMP280;66405;48.328;7.820;2023-04-24T15:12:43;99379.69;;;20.13
77331;BMP280;66405;48.328;7.820;2023-04-24T15:15:46;99377.31;;;19.77
77331;BMP280;66405;48.328;7.820;2023-04-24T15:18:47;99383.72;;;19.66
77331;BMP280;66405;48.328;7.820;2023-04-24T15:21:47;99381.59;;;19.59
77331;BMP280;66405;48.328;7.820;2023-04-24T15:24:47;99384.22;;;19.51
77331;BMP280;66405;48.328;7.820;2023-04-24T15:27:48;99379.50;;;19.52
77331;BMP280;66405;48.328;7.820;2023-04-24T15:30:50;99375.03;;;19.49
77331;BMP280;66405;48.328;7.820;2023-04-24T15:33:50;99379.59;;;19.27
77331;BMP280;66405;48.328;7.820;2023-04-24T15:36:51;99375.41;;;18.88
77331;BMP280;66405;48.328;7.820;2023-04-24T15:39:53;99369.91;;;18.50
77331;BMP280;66405;48.328;7.820;2023-04-24T15:42:54;99367.00;;;18.18
77331;BMP280;66405;48.328;7.820;2023-04-24T15:45:56;99364.63;;;18.08
77331;BMP280;66405;48.328;7.820;2023-04-24T15:49:00;99367.22;;;17.95
77331;BMP280;66405;48.328;7.820;2023-04-24T15:52:00;99358.28;;;17.70
77331;BMP280;66405;48.328;7.820;2023-04-24T15:55:02;99368.38;;;17.50
77331;BMP280;66405;48.328;7.820;2023-04-24T15:58:05;99365.50;;;17.31
77331;BMP280;66405;48.328;7.820;2023-04-24T16:01:07;99359.41;;;17.08
77331;BMP280;66405;48.328;7.820;2023-04-24T16:04:10;99362.50;;;16.87
77331;BMP280;66405;48.328;7.820;2023-04-24T16:07:11;99371.75;;;16.79
77331;BMP280;66405;48.328;7.820;2023-04-24T16:10:12;99377.47;;;16.69
77331;BMP280;66405;48.328;7.820;2023-04-24T16:13:13;99383.44;;;16.57
77331;BMP280;66405;48.328;7.820;2023-04-24T16:16:13;99386.22;;;16.45
77331;BMP280;66405;48.328;7.820;2023-04-24T16:19:14;99386.75;;;16.21
77331;BMP280;66405;48.328;7.820;2023-04-24T16:22:17;99389.22;;;16.02
77331;BMP280;66405;48.328;7.820;2023-04-24T16:25:19;99392.72;;;15.86
77331;BMP280;66405;48.328;7.820;2023-04-24T16:28:21;99395.91;;;15.73
77331;BMP280;66405;48.328;7.820;2023-04-24T16:31:22;99401.31;;;15.56
77331;BMP280;66405;48.328;7.820;2023-04-24T16:34:22;99404.78;;;15.45
77331;BMP280;66405;48.328;7.820;2023-04-24T16:37:23;99392.38;;;15.38
77331;BMP280;66405;48.328;7.820;2023-04-24T16:40:23;99392.84;;;15.37
77331;BMP280;66405;48.328;7.820;2023-04-24T16:43:24;99386.44;;;15.40
77331;BMP280;66405;48.328;7.820;2023-04-24T16:46:25;99403.53;;;15.40
77331;BMP280;66405;48.328;7.820;2023-04-24T16:49:27;99397.84;;;15.44
77331;BMP280;66405;48.328;7.820;2023-04-24T16:52:31;99406.56;;;15.76
77331;BMP280;66405;48.328;7.820;2023-04-24T16:55:34;99390.97;;;15.94
77331;BMP280;66405;48.328;7.820;2023-04-24T16:58:34;99398.38;;;16.27
77331;BMP280;66405;48.328;7.820;2023-04-24T17:01:35;99408.72;;;17.63
77331;BMP280;66405;48.328;7.820;2023-04-24T17:04:35;99415.50;;;19.88
77331;BMP280;66405;48.328;7.820;2023-04-24T17:07:35;99398.47;;;22.70
77331;BMP280;66405;48.328;7.820;2023-04-24T17:10:36;99398.75;;;24.61
77331;BMP280;66405;48.328;7.820;2023-04-24T17:13:38;99407.72;;;25.27
77331;BMP280;66405;48.328;7.820;2023-04-24T17:16:38;99403.94;;;24.90
77331;BMP280;66405;48.328;7.820;2023-04-24T17:19:40;99397.31;;;24.27
77331;BMP280;66405;48.328;7.820;2023-04-24T17:22:40;99399.88;;;23.46
77331;BMP280;66405;48.328;7.820;2023-04-24T17:25:41;99396.66;;;22.20
77331;BMP280;66405;48.328;7.820;2023-04-24T17:28:42;99398.56;;;21.47
77331;BMP280;66405;48.328;7.820;2023-04-24T17:31:42;99399.16;;;21.82
77331;BMP280;66405;48.328;7.820;2023-04-24T17:34:44;99405.63;;;22.57